Time;durP1;ratioP1;P1;durP2;ratioP2;P2;SDS_P1;SDS_P2;PMS_P1;PMS_P2;Temp;Humidity;BMP_temperature;BMP_pressure;BME280_temperature;BME280_humidity;BME280_pressure;Samples;Min_cycle;Max_cycle;Signal;HPM_P1;HPM_P2
2022/04/10 00:00:48;;;;;;;4.65;2.10;;;;;;;0.67;87.85;98461.16;4186555;28;20052;-72
2022/04/10 00:02:49;;;;;;;3.65;1.98;;;;;;;0.64;87.73;98461.78;4187051;28;20204;-72
2022/04/10 00:04:49;;;;;;;3.78;2.15;;;;;;;0.61;88.16;98454.25;4190718;28;20051;-72
2022/04/10 00:06:49;;;;;;;5.10;2.20;;;;;;;0.63;88.44;98462.09;4187499;28;20041;-72
2022/04/10 00:08:50;;;;;;;5.20;1.85;;;;;;;0.67;87.97;98458.44;4188879;28;20167;-72
2022/04/10 00:10:51;;;;;;;3.35;2.25;;;;;;;0.70;87.55;98474.16;4187104;28;20052;-72
2022/04/10 00:12:51;;;;;;;5.28;2.10;;;;;;;0.75;87.27;98467.78;4186616;28;20053;-72
2022/04/10 00:14:52;;;;;;;4.28;2.10;;;;;;;0.73;88.07;98470.00;4187028;28;20066;-72
2022/04/10 00:16:52;;;;;;;4.07;2.13;;;;;;;0.75;87.67;98468.56;4188803;28;20055;-72
2022/04/10 00:18:53;;;;;;;3.45;2.45;;;;;;;0.76;88.41;98464.72;4187176;28;20380;-72
2022/04/10 00:20:54;;;;;;;5.38;2.65;;;;;;;0.79;89.37;98466.81;4188603;28;20447;-72
2022/04/10 00:22:54;;;;;;;4.35;2.42;;;;;;;0.92;89.50;98462.41;4186674;28;20041;-72
2022/04/10 00:24:54;;;;;;;4.00;2.33;;;;;;;0.94;89.40;98471.06;4189844;28;20361;-72
2022/04/10 00:26:55;;;;;;;6.95;2.55;;;;;;;1.04;89.34;98470.75;4189439;28;20469;-72
2022/04/10 00:28:57;;;;;;;3.97;2.45;;;;;;;1.04;90.15;98459.84;4188553;28;20052;-72
2022/04/10 00:30:57;;;;;;;6.75;3.10;;;;;;;1.03;90.40;98452.00;4187639;28;20156;-72
2022/04/10 00:32:58;;;;;;;3.30;2.17;;;;;;;1.04;90.04;98457.13;4187180;28;20918;-72
2022/04/10 00:34:58;;;;;;;3.13;2.53;;;;;;;1.00;90.16;98463.56;4189933;28;20387;-72
2022/04/10 00:36:59;;;;;;;4.70;2.75;;;;;;;1.01;89.78;98465.94;4193294;28;20074;-72
2022/04/10 00:39:00;;;;;;;5.10;2.53;;;;;;;1.00;90.25;98469.00;4189053;28;20068;-72
2022/04/10 00:41:00;;;;;;;5.90;2.60;;;;;;;0.95;90.88;98464.47;4189804;28;20036;-71
2022/04/10 00:43:01;;;;;;;3.80;2.50;;;;;;;0.92;90.89;98464.31;4191208;28;20131;-71
2022/04/10 00:45:02;;;;;;;5.88;2.80;;;;;;;0.87;90.84;98459.00;4191732;28;20036;-71
2022/04/10 00:47:03;;;;;;;3.92;2.55;;;;;;;0.78;91.18;98461.69;4201829;28;20515;-72
2022/04/10 00:49:05;;;;;;;5.18;2.50;;;;;;;0.77;90.81;98457.38;4192345;28;20048;-72
2022/04/10 00:53:25;;;;;;;5.30;2.60;;;;;;;0.70;89.57;98449.63;4191425;28;20085;-71
2022/04/10 00:55:26;;;;;;;4.57;2.10;;;;;;;0.68;89.83;98454.59;4193561;28;20036;-72
2022/04/10 00:57:26;;;;;;;3.40;2.25;;;;;;;0.67;90.26;98461.16;4192237;28;20080;-72
2022/04/10 00:59:28;;;;;;;4.05;2.58;;;;;;;0.65;89.52;98460.66;4193774;28;20043;-72
2022/04/10 01:01:28;;;;;;;4.30;2.85;;;;;;;0.65;89.93;98466.09;4192728;28;20074;-71
2022/04/10 01:03:29;;;;;;;6.03;2.80;;;;;;;0.65;90.32;98466.09;4191482;28;20432;-72
2022/04/10 01:05:29;;;;;;;6.43;2.42;;;;;;;0.66;90.60;98462.25;4189846;28;20101;-72
2022/04/10 01:07:29;;;;;;;4.68;2.25;;;;;;;0.63;91.00;98473.78;4190498;28;20417;-72
2022/04/10 01:09:33;;;;;;;3.95;2.40;;;;;;;0.61;91.07;98475.22;4191101;28;20036;-72
2022/04/10 01:11:35;;;;;;;3.65;2.92;;;;;;;0.58;91.60;98468.50;4188685;28;20064;-72
2022/04/10 01:13:36;;;;;;;7.25;2.95;;;;;;;0.54;91.91;98473.75;4188185;28;20721;-72
2022/04/10 01:15:37;;;;;;;3.63;2.53;;;;;;;0.49;92.59;98471.16;4188804;28;20143;-72
2022/04/10 01:17:37;;;;;;;3.17;2.30;;;;;;;0.47;92.22;98465.22;4189809;28;20036;-72
2022/04/10 01:19:39;;;;;;;4.70;2.00;;;;;;;0.40;92.31;98458.59;4189012;28;20871;-72
2022/04/10 01:21:46;;;;;;;4.07;2.58;;;;;;;0.39;92.67;98460.53;4193461;28;20033;-72
2022/04/10 01:23:47;;;;;;;3.33;2.28;;;;;;;0.35;93.23;98465.00;4190828;28;20051;-72
2022/04/10 01:25:47;;;;;;;2.97;2.58;;;;;;;0.38;93.28;98469.00;4191143;28;20384;-72
2022/04/10 01:27:47;;;;;;;5.63;2.80;;;;;;;0.37;92.72;98470.13;4188853;28;20036;-72
2022/04/10 01:29:48;;;;;;;3.83;2.92;;;;;;;0.35;92.33;98467.72;4190668;28;20072;-72
2022/04/10 01:31:48;;;;;;;7.13;3.00;;;;;;;0.35;92.59;98477.81;4189325;28;20145;-72
2022/04/10 01:33:50;;;;;;;4.68;2.70;;;;;;;0.32;91.99;98476.50;4192015;28;20132;-72
2022/04/10 01:35:50;;;;;;;4.72;3.45;;;;;;;0.29;92.63;98474.41;4190044;28;20288;-72
2022/04/10 01:37:53;;;;;;;6.85;3.30;;;;;;;0.31;92.63;98493.13;4189355;28;20047;-72
2022/04/10 01:39:53;;;;;;;6.15;3.00;;;;;;;0.30;92.06;98484.16;4188700;28;20400;-72
2022/04/10 01:41:54;;;;;;;6.35;2.72;;;;;;;0.27;91.95;98482.88;4189958;28;20033;-72
2022/04/10 01:43:55;;;;;;;6.60;2.92;;;;;;;0.28;92.21;98483.69;4191451;28;20052;-72
2022/04/10 01:45:56;;;;;;;3.45;2.80;;;;;;;0.28;92.28;98489.13;4187753;28;20041;-72
2022/04/10 01:47:56;;;;;;;9.20;3.78;;;;;;;0.24;92.05;98486.19;4187802;28;20195;-72
2022/04/10 01:49:57;;;;;;;6.93;3.33;;;;;;;0.23;92.07;98490.03;4188200;28;20459;-72
2022/04/10 01:51:57;;;;;;;4.50;3.30;;;;;;;0.31;92.27;98495.84;4189673;28;20142;-72
2022/04/10 01:53:58;;;;;;;7.45;3.58;;;;;;;0.33;92.18;98504.50;4189002;28;20637;-72
2022/04/10 01:55:58;;;;;;;7.63;3.30;;;;;;;0.38;91.48;98501.66;4188732;28;20033;-72
2022/04/10 01:57:58;;;;;;;3.67;2.88;;;;;;;0.40;91.82;98488.56;4190327;28;20037;-72
2022/04/10 01:59:58;;;;;;;7.65;3.67;;;;;;;0.47;90.87;98503.31;4192693;28;20538;-72
2022/04/10 02:01:59;;;;;;;8.05;3.05;;;;;;;0.52;90.81;98495.03;4189272;28;20044;-72
2022/04/10 02:03:59;;;;;;;4.43;3.50;;;;;;;0.54;90.61;98497.44;4189292;28;20133;-72
2022/04/10 02:06:00;;;;;;;7.15;3.55;;;;;;;0.49;90.42;98498.38;4188882;28;20151;-72
2022/04/10 02:08:01;;;;;;;6.30;3.40;;;;;;;0.50;90.67;98497.28;4188354;28;20033;-72
2022/04/10 02:10:01;;;;;;;8.73;3.80;;;;;;;0.47;90.50;98497.88;4189740;28;20068;-71
2022/04/10 02:12:01;;;;;;;5.45;4.50;;;;;;;0.42;91.86;98502.69;4189096;28;20377;-72
2022/04/10 02:14:02;;;;;;;7.05;3.97;;;;;;;0.44;91.68;98493.06;4194833;28;20039;-72
2022/04/10 02:16:02;;;;;;;6.90;3.88;;;;;;;0.37;91.66;98491.91;4190241;28;20480;-72
2022/04/10 02:18:03;;;;;;;7.07;4.00;;;;;;;0.34;92.38;98487.91;4197993;28;20024;-72
2022/04/10 02:20:04;;;;;;;5.75;3.58;;;;;;;0.31;92.46;98493.94;4197784;28;20150;-71
2022/04/10 02:22:04;;;;;;;9.65;4.70;;;;;;;0.29;93.22;98490.72;4194580;28;20028;-71
2022/04/10 02:24:05;;;;;;;6.53;4.13;;;;;;;0.21;93.31;98492.28;4194650;28;20068;-72
2022/04/10 02:26:05;;;;;;;11.13;4.07;;;;;;;0.28;93.69;98491.84;4195733;28;20601;-72
2022/04/10 02:28:06;;;;;;;8.48;4.47;;;;;;;0.23;94.15;98492.75;4195033;28;20043;-72
2022/04/10 02:30:07;;;;;;;7.03;4.38;;;;;;;0.19;94.43;98491.78;4196035;28;20463;-72
2022/04/10 02:32:08;;;;;;;8.95;4.30;;;;;;;0.17;94.94;98491.31;4199912;28;20028;-72
2022/04/10 02:34:08;;;;;;;6.20;4.47;;;;;;;0.23;94.88;98500.94;4194652;28;20286;-72
2022/04/10 02:36:08;;;;;;;8.73;4.85;;;;;;;0.21;95.08;98500.44;4192011;28;20024;-72
2022/04/10 02:38:09;;;;;;;12.30;5.18;;;;;;;0.24;94.69;98494.38;4195040;28;20038;-72
2022/04/10 02:40:10;;;;;;;5.57;4.05;;;;;;;0.26;94.52;98496.81;4193033;28;20508;-72
2022/04/10 02:42:11;;;;;;;5.13;4.00;;;;;;;0.33;94.12;98493.63;4194192;28;20086;-72
2022/04/10 02:44:11;;;;;;;5.60;4.07;;;;;;;0.39;93.79;98495.91;4199058;28;20430;-72
2022/04/10 02:46:11;;;;;;;7.88;4.25;;;;;;;0.45;93.27;98493.88;4196248;28;20961;-72
2022/04/10 02:48:12;;;;;;;9.02;4.18;;;;;;;0.49;92.96;98495.66;4189955;28;20033;-72
2022/04/10 02:50:13;;;;;;;8.05;3.85;;;;;;;0.52;92.48;98492.31;4196240;28;20028;-72
2022/04/10 02:52:13;;;;;;;5.20;3.85;;;;;;;0.57;91.68;98484.00;4191500;28;20025;-72
2022/04/10 02:54:13;;;;;;;7.38;4.00;;;;;;;0.67;91.25;98482.16;4195370;28;20683;-71
2022/04/10 02:56:14;;;;;;;6.25;3.53;;;;;;;0.70;90.66;98486.97;4193819;28;20047;-71
2022/04/10 02:58:14;;;;;;;7.05;3.55;;;;;;;0.79;90.30;98493.25;4194395;28;20448;-72
2022/04/10 03:00:15;;;;;;;6.13;4.10;;;;;;;0.81;90.56;98494.53;4194494;28;20027;-72
2022/04/10 03:02:15;;;;;;;6.18;4.18;;;;;;;0.82;90.09;98493.41;4197048;28;20024;-72
2022/04/10 03:04:17;;;;;;;9.40;4.18;;;;;;;0.81;89.85;98485.56;4196125;28;20032;-72
2022/04/10 03:06:17;;;;;;;6.20;4.68;;;;;;;0.83;89.55;98491.53;4196234;28;20024;-72
2022/04/10 03:08:19;;;;;;;6.50;3.90;;;;;;;0.82;88.80;98492.63;4195116;28;20542;-72
2022/04/10 03:10:19;;;;;;;7.30;4.33;;;;;;;0.84;89.25;98493.94;4193761;28;20035;-72
2022/04/10 03:12:19;;;;;;;10.27;4.25;;;;;;;0.89;88.75;98506.59;4193483;28;20032;-72
2022/04/10 03:14:20;;;;;;;5.20;3.60;;;;;;;0.87;89.24;98483.53;4195718;28;20120;-72
2022/04/10 03:16:20;;;;;;;9.05;4.00;;;;;;;0.97;88.68;98494.13;4191592;28;20158;-72
2022/04/10 03:18:20;;;;;;;5.53;3.92;;;;;;;0.97;88.71;98494.13;4193463;28;20303;-72
2022/04/10 03:20:21;;;;;;;7.97;3.95;;;;;;;0.99;88.16;98498.13;4194019;28;20659;-72
2022/04/10 03:22:21;;;;;;;6.30;3.47;;;;;;;1.02;88.64;98496.72;4194604;28;20044;-72
2022/04/10 03:24:21;;;;;;;6.82;3.92;;;;;;;1.02;88.21;98502.97;4199219;28;20064;-72
2022/04/10 03:26:22;;;;;;;8.25;4.35;;;;;;;1.05;88.16;98496.09;4193965;28;20124;-72
2022/04/10 03:28:22;;;;;;;8.10;4.90;;;;;;;1.07;87.87;98500.09;4196255;28;20052;-72
2022/04/10 03:30:22;;;;;;;15.45;8.75;;;;;;;1.08;87.93;98511.81;4192649;28;20040;-72
2022/04/10 03:32:23;;;;;;;11.07;5.55;;;;;;;1.11;87.74;98506.53;4195293;28;20080;-72
2022/04/10 03:34:23;;;;;;;15.93;7.35;;;;;;;1.13;87.16;98504.28;4194495;28;20083;-72
2022/04/10 03:36:23;;;;;;;13.93;7.00;;;;;;;1.13;87.66;98506.22;4191124;28;20127;-72
2022/04/10 03:38:24;;;;;;;12.25;6.53;;;;;;;1.06;87.35;98500.41;4192565;28;20475;-72
2022/04/10 03:40:24;;;;;;;17.27;8.93;;;;;;;1.08;88.01;98512.63;4188686;28;20043;-72
2022/04/10 03:42:24;;;;;;;19.77;7.85;;;;;;;1.19;86.80;98524.03;4195907;28;20047;-71
2022/04/10 03:44:24;;;;;;;11.77;6.00;;;;;;;1.12;87.90;98527.22;4192766;28;20394;-71
2022/04/10 03:46:25;;;;;;;7.45;4.57;;;;;;;1.15;87.20;98520.31;4193784;28;20708;-71
2022/04/10 03:48:26;;;;;;;9.98;4.63;;;;;;;1.18;87.28;98532.53;4196210;28;20032;-71
2022/04/10 03:50:26;;;;;;;8.52;5.38;;;;;;;1.15;87.43;98535.88;4190956;28;20033;-71
2022/04/10 03:52:27;;;;;;;12.13;4.70;;;;;;;1.18;87.13;98537.97;4195702;28;20127;-71
2022/04/10 03:54:27;;;;;;;8.40;4.13;;;;;;;1.15;87.31;98538.59;4195750;28;20048;-71
2022/04/10 03:56:27;;;;;;;11.25;5.00;;;;;;;1.08;87.72;98544.53;4191232;28;20492;-71
2022/04/10 03:58:28;;;;;;;8.48;4.35;;;;;;;1.12;87.72;98537.31;4197736;28;20052;-71
2022/04/10 04:00:28;;;;;;;8.25;4.30;;;;;;;1.10;87.59;98537.63;4193616;28;20041;-72
2022/04/10 04:02:28;;;;;;;8.07;4.78;;;;;;;1.15;87.12;98544.03;4198748;28;20075;-72
2022/04/10 04:04:29;;;;;;;5.68;3.50;;;;;;;1.19;86.31;98536.84;4193901;28;20388;-72
2022/04/10 04:06:29;;;;;;;8.57;3.97;;;;;;;1.25;85.88;98546.50;4193162;28;20044;-72
2022/04/10 04:08:29;;;;;;;6.93;4.30;;;;;;;1.22;85.21;98556.09;4192865;28;20440;-72
2022/04/10 04:10:30;;;;;;;8.52;3.78;;;;;;;1.23;85.09;98556.91;4195650;28;20611;-72
2022/04/10 04:12:30;;;;;;;6.18;3.35;;;;;;;1.22;83.87;98547.91;4195193;28;20420;-71
2022/04/10 04:14:31;;;;;;;5.53;3.22;;;;;;;1.29;83.50;98552.94;4198120;28;20036;-71
2022/04/10 04:16:31;;;;;;;12.00;3.38;;;;;;;1.33;83.50;98552.00;4194332;28;20040;-71
2022/04/10 04:18:32;;;;;;;11.65;4.32;;;;;;;1.28;83.81;98565.75;4199174;28;20375;-71
2022/04/10 04:20:32;;;;;;;9.30;3.45;;;;;;;1.36;82.88;98561.44;4196605;28;20036;-71
2022/04/10 04:22:34;;;;;;;5.20;2.92;;;;;;;1.43;81.72;98561.00;4195754;28;20050;-71
2022/04/10 04:24:34;;;;;;;8.27;3.60;;;;;;;1.35;82.83;98557.94;4194291;28;20435;-71
2022/04/10 04:26:35;;;;;;;12.48;3.25;;;;;;;1.45;81.82;98567.75;4202796;28;20040;-71
2022/04/10 04:28:36;;;;;;;4.93;3.50;;;;;;;1.38;82.37;98568.19;4195755;28;20365;-71
2022/04/10 04:30:37;;;;;;;6.05;3.33;;;;;;;1.35;82.29;98571.56;4200008;28;20036;-72
2022/04/10 04:32:37;;;;;;;7.25;3.30;;;;;;;1.28;83.33;98575.84;4199882;28;20422;-72
2022/04/10 04:34:37;;;;;;;6.20;3.40;;;;;;;1.24;82.78;98574.84;4195122;28;20132;-71
2022/04/10 04:36:38;;;;;;;11.00;3.60;;;;;;;1.18;83.61;98567.97;4198809;28;20040;-71
2022/04/10 04:38:38;;;;;;;6.68;3.22;;;;;;;1.20;83.56;98579.34;4195272;28;20487;-71
2022/04/10 04:40:38;;;;;;;8.77;3.83;;;;;;;1.12;83.66;98589.09;4198255;28;20082;-71
2022/04/10 04:42:39;;;;;;;6.95;3.45;;;;;;;1.06;84.17;98582.16;4199314;28;20462;-71
2022/04/10 04:44:39;;;;;;;7.97;3.40;;;;;;;0.99;83.80;98582.59;4194437;28;20036;-71
2022/04/10 04:46:39;;;;;;;6.43;3.53;;;;;;;0.99;83.81;98587.25;4200275;28;20395;-71
2022/04/10 04:48:39;;;;;;;6.72;3.72;;;;;;;0.95;84.28;98584.34;4196938;28;20039;-71
2022/04/10 04:50:42;;;;;;;8.23;3.78;;;;;;;0.92;84.07;98593.16;4195349;28;20501;-71
2022/04/10 04:52:43;;;;;;;6.65;3.70;;;;;;;0.93;84.36;98602.94;4196537;28;20053;-71
2022/04/10 04:54:43;;;;;;;5.53;3.45;;;;;;;0.87;84.85;98609.63;4196142;28;20045;-71
2022/04/10 04:56:43;;;;;;;6.93;3.80;;;;;;;0.79;85.20;98608.44;4196279;28;20425;-71
2022/04/10 04:58:44;;;;;;;5.10;3.38;;;;;;;0.86;85.07;98604.50;4195756;28;20048;-71
2022/04/10 05:00:44;;;;;;;8.07;3.97;;;;;;;0.78;85.19;98611.50;4195962;28;20465;-71
2022/04/10 05:02:45;;;;;;;10.25;4.32;;;;;;;0.77;85.67;98615.34;4195965;28;20098;-71
2022/04/10 05:04:45;;;;;;;7.32;4.20;;;;;;;0.71;86.27;98617.38;4195019;28;20079;-71
2022/04/10 05:06:46;;;;;;;7.57;3.90;;;;;;;0.65;86.52;98623.25;4197888;28;20037;-71
2022/04/10 05:08:48;;;;;;;11.80;4.63;;;;;;;0.62;86.93;98627.41;4196787;28;20571;-71
2022/04/10 05:10:49;;;;;;;6.22;3.95;;;;;;;0.65;86.52;98634.13;4197477;28;20040;-71
2022/04/10 05:12:49;;;;;;;6.50;4.10;;;;;;;0.69;86.33;98629.69;4195560;28;20171;-72
2022/04/10 05:14:49;;;;;;;7.55;3.72;;;;;;;0.69;86.22;98632.41;4195592;28;20106;-72
2022/04/10 05:16:50;;;;;;;8.70;3.97;;;;;;;0.81;84.97;98635.38;4196693;28;20093;-72
2022/04/10 05:18:50;;;;;;;9.48;5.68;;;;;;;0.86;84.59;98634.44;4194688;28;20473;-72
2022/04/10 05:20:51;;;;;;;7.07;4.85;;;;;;;0.82;84.80;98643.22;4191616;28;20123;-71
2022/04/10 05:22:51;;;;;;;5.57;3.90;;;;;;;0.82;85.02;98653.31;4196119;28;20044;-71
2022/04/10 05:24:51;;;;;;;5.75;3.95;;;;;;;0.92;84.30;98655.00;4195886;28;20044;-71
2022/04/10 05:26:51;;;;;;;8.15;3.72;;;;;;;1.06;83.53;98663.91;4190188;28;20397;-71
2022/04/10 05:28:52;;;;;;;6.47;4.40;;;;;;;1.17;83.42;98661.75;4189635;28;20163;-71
2022/04/10 05:30:53;;;;;;;13.10;4.45;;;;;;;1.17;83.14;98667.19;4190889;28;20408;-71
2022/04/10 05:32:54;;;;;;;10.50;5.60;;;;;;;1.18;83.84;98666.88;4196259;28;20064;-71
2022/04/10 05:34:54;;;;;;;8.40;4.18;;;;;;;1.25;83.94;98666.44;4196641;28;20064;-71
2022/04/10 05:36:54;;;;;;;11.05;4.22;;;;;;;1.38;82.32;98666.34;4196945;28;20500;-71
2022/04/10 05:38:55;;;;;;;6.90;5.10;;;;;;;1.44;82.72;98668.94;4199118;28;20811;-71
2022/04/10 05:40:56;;;;;;;9.00;4.80;;;;;;;1.53;82.25;98672.50;4195155;28;20029;-71
2022/04/10 05:42:56;;;;;;;6.63;4.45;;;;;;;1.57;82.73;98679.75;4197419;28;20040;-71
2022/04/10 05:45:03;;;;;;;7.78;4.43;;;;;;;1.64;82.40;98696.44;4191209;28;20063;-71
2022/04/10 05:47:04;;;;;;;5.22;4.10;;;;;;;1.61;80.90;98694.38;4196014;28;20131;-71
2022/04/10 05:49:06;;;;;;;9.25;4.13;;;;;;;1.58;81.57;98708.63;4196798;28;20079;-71
2022/04/10 05:51:07;;;;;;;7.60;3.80;;;;;;;1.62;81.86;98704.16;4197027;28;20578;-71
2022/04/10 05:53:08;;;;;;;7.53;4.18;;;;;;;1.56;81.78;98710.84;4192086;28;20128;-71
2022/04/10 05:55:09;;;;;;;6.93;3.92;;;;;;;1.56;81.50;98713.59;4189392;28;20087;-71
2022/04/10 05:57:09;;;;;;;12.35;4.72;;;;;;;1.42;82.81;98704.69;4193308;28;20512;-71
2022/04/10 05:59:09;;;;;;;8.05;4.28;;;;;;;1.37;83.60;98713.81;4193574;28;20723;-71
2022/04/10 06:01:10;;;;;;;8.05;4.72;;;;;;;1.24;84.19;98703.81;4192568;28;20076;-71
2022/04/10 06:03:10;;;;;;;7.50;4.20;;;;;;;1.26;84.68;98703.47;4199757;28;20131;-71
2022/04/10 06:05:10;;;;;;;6.90;3.85;;;;;;;1.25;82.71;98708.13;4195891;28;20547;-71
2022/04/10 06:07:10;;;;;;;10.25;4.40;;;;;;;1.24;83.25;98711.13;4196369;28;20237;-71
2022/04/10 06:09:11;;;;;;;10.13;4.50;;;;;;;1.18;83.87;98699.59;4196099;28;20233;-71
2022/04/10 06:11:11;;;;;;;9.45;5.80;;;;;;;1.31;84.04;98709.59;4193612;28;20176;-71
2022/04/10 06:13:11;;;;;;;8.20;4.30;;;;;;;1.40;82.62;98694.09;4197415;28;20384;-71
2022/04/10 06:15:12;;;;;;;6.28;4.38;;;;;;;1.52;82.42;98711.81;4195642;28;20676;-71
2022/04/10 06:17:12;;;;;;;9.63;5.05;;;;;;;1.64;80.95;98714.75;4193757;28;20472;-71
2022/04/10 06:19:13;;;;;;;9.20;4.70;;;;;;;1.78;81.16;98714.66;4191679;28;20036;-71
2022/04/10 06:21:13;;;;;;;11.27;6.30;;;;;;;1.88;81.45;98708.91;4190426;28;20037;-71
2022/04/10 06:23:13;;;;;;;8.02;4.40;;;;;;;1.95;80.79;98712.78;4200345;28;20044;-71
2022/04/10 06:25:14;;;;;;;7.65;4.45;;;;;;;2.01;80.64;98718.94;4196646;28;20043;-72
2022/04/10 06:27:14;;;;;;;8.27;4.82;;;;;;;2.08;81.86;98722.00;4196822;28;20078;-71
2022/04/10 06:29:15;;;;;;;5.53;3.90;;;;;;;2.09;81.22;98718.16;4188882;28;20086;-71
2022/04/10 06:31:16;;;;;;;6.78;4.82;;;;;;;2.25;80.37;98729.44;4188698;28;20462;-71
2022/04/10 06:33:16;;;;;;;7.57;4.43;;;;;;;2.24;80.54;98742.28;4194552;28;20294;-72
2022/04/10 06:35:16;;;;;;;7.28;4.10;;;;;;;2.36;80.60;98729.94;4196731;28;20180;-71
2022/04/10 06:37:16;;;;;;;7.82;4.50;;;;;;;2.34;79.67;98732.19;4195072;28;20166;-71
2022/04/10 06:39:17;;;;;;;6.50;3.50;;;;;;;2.38;80.54;98733.16;4194139;28;20040;-71
2022/04/10 06:41:17;;;;;;;9.05;4.22;;;;;;;2.39;79.60;98735.56;4190605;28;20075;-71
2022/04/10 06:43:19;;;;;;;6.05;4.28;;;;;;;2.37;79.35;98734.28;4196194;28;20044;-71
2022/04/10 06:45:21;;;;;;;13.40;5.17;;;;;;;2.44;78.57;98738.16;4194540;28;20549;-71
2022/04/10 06:47:21;;;;;;;8.88;4.13;;;;;;;2.52;79.21;98744.75;4198735;28;20291;-71
2022/04/10 06:49:22;;;;;;;5.90;3.78;;;;;;;2.61;78.64;98751.03;4188116;28;20474;-72
2022/04/10 06:51:22;;;;;;;7.55;3.38;;;;;;;2.74;77.30;98747.38;4195110;28;20504;-71
2022/04/10 06:53:22;;;;;;;6.38;4.10;;;;;;;2.69;76.92;98747.53;4189091;28;20373;-71
2022/04/10 06:55:23;;;;;;;6.50;3.30;;;;;;;2.69;76.47;98744.78;4196530;28;20044;-71
2022/04/10 06:57:23;;;;;;;5.43;3.53;;;;;;;2.51;76.35;98759.53;4194703;28;20048;-71
2022/04/10 06:59:24;;;;;;;8.57;3.95;;;;;;;2.48;76.50;98741.03;4193958;28;20477;-71
2022/04/10 07:01:24;;;;;;;8.52;3.63;;;;;;;2.46;77.59;98746.03;4192444;28;20055;-71
2022/04/10 07:03:24;;;;;;;5.97;3.60;;;;;;;2.44;77.70;98748.28;4193741;28;20146;-72
2022/04/10 07:05:24;;;;;;;7.18;3.47;;;;;;;2.40;77.16;98742.66;4192091;28;20068;-71
2022/04/10 07:07:25;;;;;;;8.20;4.22;;;;;;;2.46;76.67;98752.28;4189787;28;20472;-71
2022/04/10 07:09:25;;;;;;;7.45;3.97;;;;;;;2.59;77.09;98745.09;4192754;28;20036;-72
2022/04/10 07:11:25;;;;;;;7.25;3.92;;;;;;;2.60;76.03;98737.72;4191035;28;20539;-71
2022/04/10 07:13:26;;;;;;;8.35;3.88;;;;;;;2.72;75.54;98754.25;4189845;28;20032;-71
2022/04/10 07:15:26;;;;;;;8.63;3.60;;;;;;;2.75;76.07;98748.19;4190542;28;20044;-71
2022/04/10 07:17:26;;;;;;;9.70;4.15;;;;;;;2.74;76.83;98752.84;4192891;28;20510;-71
2022/04/10 07:19:27;;;;;;;8.68;3.72;;;;;;;2.83;75.95;98754.78;4194266;28;20361;-71
2022/04/10 07:23:46;;;;;;;6.82;3.67;;;;;;;3.03;75.74;98751.41;4190969;28;20131;-71
2022/04/10 07:25:46;;;;;;;12.68;3.50;;;;;;;3.05;76.87;98747.22;4193016;28;20472;-71
2022/04/10 07:27:47;;;;;;;8.32;3.88;;;;;;;3.07;76.62;98752.38;4193259;28;20295;-71
2022/04/10 07:29:47;;;;;;;6.03;3.78;;;;;;;3.00;75.44;98755.59;4194674;28;20040;-71
2022/04/10 07:31:48;;;;;;;4.88;3.47;;;;;;;2.98;75.86;98751.53;4192099;28;20060;-71
2022/04/10 07:33:48;;;;;;;6.97;3.40;;;;;;;3.03;75.34;98760.41;4191104;28;20071;-71
2022/04/10 07:35:48;;;;;;;8.43;3.10;;;;;;;3.23;74.24;98764.44;4191686;28;20032;-71
2022/04/10 07:37:49;;;;;;;4.93;3.53;;;;;;;3.25;75.31;98767.66;4193782;28;20184;-71
2022/04/10 07:39:49;;;;;;;6.88;2.95;;;;;;;3.28;75.44;98767.00;4188954;28;20067;-71
2022/04/10 07:41:49;;;;;;;6.45;2.72;;;;;;;3.15;73.84;98762.50;4187868;28;20048;-71
2022/04/10 07:43:50;;;;;;;4.72;3.20;;;;;;;3.02;76.10;98767.00;4193370;28;20062;-71
2022/04/10 07:48:09;;;;;;;6.35;3.30;;;;;;;2.93;75.65;98776.31;4192455;28;20106;-71
2022/04/10 07:50:09;;;;;;;9.60;3.42;;;;;;;2.88;75.44;98762.81;4193656;28;20054;-71
2022/04/10 07:52:10;;;;;;;10.10;3.80;;;;;;;3.09;75.08;98763.78;4198601;28;20176;-71
2022/04/10 07:54:11;;;;;;;8.15;3.45;;;;;;;3.12;73.83;98774.06;4193295;28;20408;-72
2022/04/10 07:56:11;;;;;;;8.68;3.50;;;;;;;3.12;73.15;98768.59;4189505;28;20080;-72
2022/04/10 07:58:11;;;;;;;10.27;3.10;;;;;;;3.27;72.88;98787.25;4189559;28;20499;-71
2022/04/10 08:00:12;;;;;;;5.40;2.80;;;;;;;3.17;71.35;98773.13;4195613;28;20267;-71
2022/04/10 08:02:13;;;;;;;7.25;4.05;;;;;;;3.31;72.73;98771.00;4191751;28;20040;-71
2022/04/10 08:04:13;;;;;;;6.57;3.63;;;;;;;3.41;72.49;98776.16;4188384;28;20029;-71
2022/04/10 08:06:13;;;;;;;12.65;5.28;;;;;;;3.30;72.54;98783.06;4190499;28;20680;-71
2022/04/10 08:08:14;;;;;;;11.02;3.65;;;;;;;3.36;71.95;98792.72;4187357;28;20074;-71
2022/04/10 08:10:15;;;;;;;9.23;3.60;;;;;;;3.38;71.16;98785.78;4192851;28;20044;-72
2022/04/10 08:12:15;;;;;;;11.32;3.88;;;;;;;3.51;70.96;98785.97;4189656;28;20072;-72
2022/04/10 08:14:16;;;;;;;10.07;4.40;;;;;;;3.60;70.76;98784.81;4190533;28;20063;-71
2022/04/10 08:16:17;;;;;;;7.78;3.13;;;;;;;3.71;68.87;98796.22;4190268;28;20059;-71
2022/04/10 08:18:17;;;;;;;8.60;3.92;;;;;;;3.67;68.36;98790.59;4191350;28;20090;-71
2022/04/10 08:20:17;;;;;;;6.82;3.70;;;;;;;3.59;68.83;98796.09;4187762;28;20099;-71
2022/04/10 08:22:27;;;;;;;12.32;4.32;;;;;;;3.68;67.13;98802.34;4188291;28;20036;-71
2022/04/10 08:24:27;;;;;;;5.93;2.78;;;;;;;3.73;68.17;98801.38;4193281;28;20429;-71
2022/04/10 08:26:27;;;;;;;9.85;3.53;;;;;;;3.61;69.38;98799.31;4187787;28;20070;-71
2022/04/10 08:28:29;;;;;;;15.25;5.00;;;;;;;3.82;69.80;98792.03;4195143;28;20040;-71
2022/04/10 08:30:29;;;;;;;8.23;2.97;;;;;;;4.00;67.33;98811.13;4188640;28;20041;-71
2022/04/10 08:32:36;;;;;;;9.82;3.92;;;;;;;4.11;66.20;98806.91;4190404;28;20784;-71
2022/04/10 08:34:36;;;;;;;7.28;4.90;;;;;;;4.02;67.91;98801.47;4188746;28;20041;-71
2022/04/10 08:36:37;;;;;;;9.18;3.65;;;;;;;4.02;66.66;98800.66;4190443;28;20202;-71
2022/04/10 08:38:37;;;;;;;8.57;2.85;;;;;;;4.18;65.90;98810.75;4190517;28;20044;-71
2022/04/10 08:40:38;;;;;;;7.82;3.83;;;;;;;4.28;65.12;98819.75;4196680;28;20037;-71
2022/04/10 08:42:38;;;;;;;8.77;2.92;;;;;;;4.03;65.57;98807.75;4192350;28;20484;-71
2022/04/10 08:44:39;;;;;;;4.28;2.85;;;;;;;4.15;66.09;98810.63;4190637;28;20369;-71
2022/04/10 08:46:42;;;;;;;8.60;3.55;;;;;;;4.36;65.62;98818.91;4191197;28;20044;-70
2022/04/10 08:48:43;;;;;;;6.65;3.42;;;;;;;4.66;65.68;98825.22;4198392;28;20064;-70
2022/04/10 08:50:43;;;;;;;7.45;2.85;;;;;;;4.75;63.78;98826.78;4195432;28;20495;-71
2022/04/10 08:52:46;;;;;;;4.53;2.25;;;;;;;4.72;62.84;98827.44;4191420;28;20039;-71
2022/04/10 08:54:48;;;;;;;8.23;3.47;;;;;;;4.77;64.36;98815.47;4189433;28;20118;-71
2022/04/10 08:56:52;;;;;;;5.78;2.00;;;;;;;4.67;62.27;98802.16;4191598;28;20040;-71
2022/04/10 08:58:53;;;;;;;9.20;4.05;;;;;;;4.81;64.49;98821.91;4194547;28;20048;-70
2022/04/10 09:00:53;;;;;;;6.90;2.78;;;;;;;4.72;62.17;98824.72;4192669;28;20106;-70
2022/04/10 09:02:53;;;;;;;6.07;3.20;;;;;;;4.47;63.58;98829.19;4194281;28;20556;-71
2022/04/10 09:04:54;;;;;;;7.93;4.45;;;;;;;4.56;65.16;98833.81;4192800;28;20037;-71
2022/04/10 09:07:03;;;;;;;8.43;3.83;;;;;;;4.45;64.69;98828.69;4192328;28;20048;-71
2022/04/10 09:09:11;;;;;;;7.38;3.92;;;;;;;4.57;63.31;98836.22;4193364;28;20173;-71
2022/04/10 09:11:12;;;;;;;4.78;3.30;;;;;;;4.53;62.94;98832.53;4192224;28;20041;-71
2022/04/10 09:13:14;;;;;;;5.05;3.03;;;;;;;4.50;63.85;98833.19;4193348;28;20040;-71
2022/04/10 09:15:15;;;;;;;5.18;2.72;;;;;;;4.47;63.56;98837.41;4197796;28;20032;-71
2022/04/10 09:17:29;;;;;;;6.53;2.67;;;;;;;4.62;62.41;98836.03;4192478;28;20052;-71
2022/04/10 09:19:41;;;;;;;7.30;2.50;;;;;;;4.91;62.37;98835.22;4191107;28;20047;-71
2022/04/10 09:21:43;;;;;;;10.10;3.67;;;;;;;4.92;62.27;98825.88;4190059;28;20121;-71
2022/04/10 09:23:52;;;;;;;10.80;3.67;;;;;;;5.11;63.75;98827.34;4189730;28;20500;-71
2022/04/10 09:25:59;;;;;;;7.82;2.85;;;;;;;5.06;60.26;98831.13;4188761;28;20291;-71
2022/04/10 09:28:00;;;;;;;6.57;2.42;;;;;;;4.95;61.58;98829.88;4191695;28;20396;-71
2022/04/10 09:30:00;;;;;;;6.72;3.05;;;;;;;5.13;61.29;98827.81;4188527;28;20041;-71
2022/04/10 09:32:01;;;;;;;3.85;2.50;;;;;;;4.95;63.02;98822.44;4193841;28;20122;-71
2022/04/10 09:34:06;;;;;;;4.20;2.70;;;;;;;4.99;62.83;98828.09;4193650;28;20626;-71
2022/04/10 09:36:07;;;;;;;8.98;3.65;;;;;;;4.79;60.79;98846.09;4189591;28;20032;-71
2022/04/10 09:38:07;;;;;;;7.25;1.80;;;;;;;4.73;58.09;98833.72;4188562;28;20513;-71
2022/04/10 09:40:24;;;;;;;3.63;2.08;;;;;;;4.91;58.33;98837.19;4188886;28;20479;-71
2022/04/10 09:42:32;;;;;;;4.75;1.77;;;;;;;4.91;58.22;98834.44;4191595;28;20071;-71